Grand Canyon National Park, AZ

13:38 MST le 25 novembre 2014 (GMT -0700)
KAZGRAND3 | Change Station
CLOSE
Current Station
Stations météorologiques personnelles
Location: Grand Canyon, AZ
Altitude: 6991 ft
Stations météo à proximité

Alt. 6991 ft 36.05 °N, 112.12 °W | Updated 3 seconds ago

Ciel dégagé
Ciel dégagé
44.3 ° F
Paraît 44 ° F
N
1.0
Vent Variable Vent de ENE
Gusts 7.0 mph

Aujourd'hui
Haut(e) -- | Bas -- ° F
--% Risque de précip.
Hier
Haut(e) -- | Bas -- ° F
Precip. -- pouce
7:15 AM 5:15 PM
Lune montante, 13% visible
Pression 30.46 pouce
Visibilité 10.0 Miles terrestres
Nuages Ciel dégagé
Refroidissement éolien 44 ° F
Point de rosée 1 ° F
Humidité 16%
Précipitations 0.00 pouce
Profondeur de la couche neigeuse Non disponible.
UV 4 sur 12
Pollen .40 sur 12
Qualité de l'air Non disponible.
Flu Activity Non disponible.
METAR KGCN 251954Z 27006KT 10SM CLR 09/M18 A3042 RMK AO2 SLP315 T00891178

More Conditions Fewer Conditions

Pression 30.46 pouce
Visibilité 10.0 Miles terrestres
Nuages Ciel dégagé
Refroidissement éolien 44 ° F
Point de rosée 1 ° F
Humidité 16%
Précipitations 0.00 pouce
Profondeur de la couche neigeuse Non disponible.
UV 4 sur 12
Pollen .40 sur 12
Qualité de l'air Non disponible.
Flu Activity Non disponible.
METAR KGCN 251954Z 27006KT 10SM CLR 09/M18 A3042 RMK AO2 SLP315 T00891178

More Conditions Fewer Conditions

10-Day Weather Forecast

Almanac

Astronomie

Nov. 25, 2014 Lever Coucher
Temps réel
Crépuscule civil
Crépuscule nautique
Crépuscule astronomique
Lune
Durée de lumière visible
Longueur du jour
Tomorrow will be .
, % of the Moon is Illuminated

Extrêmes aujourd'hui

State Highs State Lows

Community

WunderPhotos

Upload Photos

1,773,585 Photos téléchargées !

WunderBlogs® & News

Nearby

Qualité de l'air

  Qualité de l'air Indice de la qualité de l'air Polluant
Not available.

Épaisseur de neige

Station Depth Altitude

Activité sismique

Ville Distance Mag. Time & Date
Minimum magnitude displayed is 2.5.

Températures des eaux côtières

Lieu Température

Stations météo à proximité